sensor_id;sensor_type;location;lat;lon;timestamp;pressure;altitude;pressure_sealevel;temperature;humidity
45731;BME280;31440;48.584;13.460;2023-04-20T00:01:26;96841.25;;;6.92;100.00
45731;BME280;31440;48.584;13.460;2023-04-20T00:04:31;96838.97;;;7.20;100.00
45731;BME280;31440;48.584;13.460;2023-04-20T00:07:35;96827.31;;;7.00;100.00
45731;BME280;31440;48.584;13.460;2023-04-20T00:10:40;96822.34;;;6.50;100.00
45731;BME280;31440;48.584;13.460;2023-04-20T00:13:44;96811.88;;;6.56;100.00
45731;BME280;31440;48.584;13.460;2023-04-20T00:16:49;96812.03;;;6.02;100.00
45731;BME280;31440;48.584;13.460;2023-04-20T00:19:54;96805.28;;;6.41;100.00
45731;BME280;31440;48.584;13.460;2023-04-20T00:22:58;96798.22;;;6.52;100.00
45731;BME280;31440;48.584;13.460;2023-04-20T00:26:03;96793.97;;;6.90;100.00
45731;BME280;31440;48.584;13.460;2023-04-20T00:29:07;96787.97;;;6.03;100.00
45731;BME280;31440;48.584;13.460;2023-04-20T00:32:13;96768.88;;;6.56;100.00
45731;BME280;31440;48.584;13.460;2023-04-20T00:35:18;96777.38;;;6.17;100.00
45731;BME280;31440;48.584;13.460;2023-04-20T00:38:22;96774.03;;;6.13;100.00
45731;BME280;31440;48.584;13.460;2023-04-20T00:41:27;96783.72;;;5.99;100.00
45731;BME280;31440;48.584;13.460;2023-04-20T00:44:31;96771.34;;;6.18;100.00
45731;BME280;31440;48.584;13.460;2023-04-20T00:47:37;96768.41;;;5.91;100.00
45731;BME280;31440;48.584;13.460;2023-04-20T00:50:42;96752.00;;;5.97;100.00
45731;BME280;31440;48.584;13.460;2023-04-20T00:53:46;96747.22;;;6.22;100.00
45731;BME280;31440;48.584;13.460;2023-04-20T00:56:51;96745.41;;;6.28;100.00
45731;BME280;31440;48.584;13.460;2023-04-20T01:03:03;96753.25;;;6.21;100.00
45731;BME280;31440;48.584;13.460;2023-04-20T01:06:08;96754.13;;;6.20;100.00
45731;BME280;31440;48.584;13.460;2023-04-20T01:09:14;96745.22;;;5.91;100.00
45731;BME280;31440;48.584;13.460;2023-04-20T01:12:19;96749.69;;;6.28;100.00
45731;BME280;31440;48.584;13.460;2023-04-20T01:15:23;96751.81;;;6.52;100.00
45731;BME280;31440;48.584;13.460;2023-04-20T01:21:34;96741.06;;;6.30;100.00
45731;BME280;31440;48.584;13.460;2023-04-20T01:24:39;96734.84;;;6.39;100.00
45731;BME280;31440;48.584;13.460;2023-04-20T01:27:43;96737.75;;;6.22;100.00
45731;BME280;31440;48.584;13.460;2023-04-20T01:30:48;96733.50;;;6.21;100.00
45731;BME280;31440;48.584;13.460;2023-04-20T01:33:53;96731.53;;;6.34;100.00
45731;BME280;31440;48.584;13.460;2023-04-20T01:36:58;96731.75;;;6.22;100.00
45731;BME280;31440;48.584;13.460;2023-04-20T01:40:04;96712.47;;;5.98;100.00
45731;BME280;31440;48.584;13.460;2023-04-20T01:43:09;96729.56;;;6.02;100.00
45731;BME280;31440;48.584;13.460;2023-04-20T01:46:15;96729.22;;;6.20;100.00
45731;BME280;31440;48.584;13.460;2023-04-20T01:49:19;96718.72;;;6.31;100.00
45731;BME280;31440;48.584;13.460;2023-04-20T01:52:24;96716.16;;;5.85;100.00
45731;BME280;31440;48.584;13.460;2023-04-20T01:55:29;96713.19;;;6.05;100.00
45731;BME280;31440;48.584;13.460;2023-04-20T01:58:33;96705.28;;;5.68;100.00
45731;BME280;31440;48.584;13.460;2023-04-20T02:01:38;96709.44;;;6.21;100.00
45731;BME280;31440;48.584;13.460;2023-04-20T02:04:42;96711.97;;;6.24;100.00
45731;BME280;31440;48.584;13.460;2023-04-20T02:07:46;96702.59;;;6.20;100.00
45731;BME280;31440;48.584;13.460;2023-04-20T02:10:51;96693.13;;;6.62;100.00
45731;BME280;31440;48.584;13.460;2023-04-20T02:13:55;96693.41;;;6.07;100.00
45731;BME280;31440;48.584;13.460;2023-04-20T02:17:00;96684.13;;;6.40;100.00
45731;BME280;31440;48.584;13.460;2023-04-20T02:20:06;96694.63;;;6.32;100.00
45731;BME280;31440;48.584;13.460;2023-04-20T02:23:12;96703.75;;;6.47;100.00
45731;BME280;31440;48.584;13.460;2023-04-20T02:26:16;96709.25;;;6.31;100.00
45731;BME280;31440;48.584;13.460;2023-04-20T02:29:21;96711.97;;;6.24;100.00
45731;BME280;31440;48.584;13.460;2023-04-20T02:32:26;96683.94;;;6.50;100.00
45731;BME280;31440;48.584;13.460;2023-04-20T02:35:31;96685.91;;;6.38;100.00
45731;BME280;31440;48.584;13.460;2023-04-20T02:38:35;96710.22;;;6.66;100.00
45731;BME280;31440;48.584;13.460;2023-04-20T02:41:44;96701.25;;;6.44;100.00
45731;BME280;31440;48.584;13.460;2023-04-20T02:44:49;96698.47;;;6.11;100.00
45731;BME280;31440;48.584;13.460;2023-04-20T02:47:55;96687.09;;;6.21;100.00
45731;BME280;31440;48.584;13.460;2023-04-20T02:51:01;96691.41;;;5.78;100.00
45731;BME280;31440;48.584;13.460;2023-04-20T02:54:13;96656.56;;;6.02;100.00
45731;BME280;31440;48.584;13.460;2023-04-20T02:57:17;96684.44;;;6.26;100.00
45731;BME280;31440;48.584;13.460;2023-04-20T03:00:22;96687.59;;;5.97;100.00
45731;BME280;31440;48.584;13.460;2023-04-20T03:03:38;96682.41;;;5.52;100.00
45731;BME280;31440;48.584;13.460;2023-04-20T03:06:48;96684.88;;;5.58;100.00
45731;BME280;31440;48.584;13.460;2023-04-20T03:09:58;96683.59;;;5.81;100.00
45731;BME280;31440;48.584;13.460;2023-04-20T03:13:17;96682.97;;;5.68;100.00
45731;BME280;31440;48.584;13.460;2023-04-20T03:16:29;96683.63;;;5.79;100.00
45731;BME280;31440;48.584;13.460;2023-04-20T03:19:34;96686.41;;;4.59;100.00
45731;BME280;31440;48.584;13.460;2023-04-20T03:22:39;96685.25;;;5.37;100.00
45731;BME280;31440;48.584;13.460;2023-04-20T03:25:46;96682.25;;;5.09;100.00
45731;BME280;31440;48.584;13.460;2023-04-20T03:28:58;96684.13;;;5.01;100.00
45731;BME280;31440;48.584;13.460;2023-04-20T03:32:04;96691.91;;;4.97;100.00
45731;BME280;31440;48.584;13.460;2023-04-20T03:35:09;96690.41;;;4.80;100.00
45731;BME280;31440;48.584;13.460;2023-04-20T03:38:13;96683.63;;;4.73;100.00
45731;BME280;31440;48.584;13.460;2023-04-20T03:41:18;96687.25;;;4.60;100.00
45731;BME280;31440;48.584;13.460;2023-04-20T03:44:22;96688.66;;;4.82;100.00
45731;BME280;31440;48.584;13.460;2023-04-20T03:47:27;96677.31;;;4.96;100.00
45731;BME280;31440;48.584;13.460;2023-04-20T03:50:32;96675.50;;;5.04;100.00
45731;BME280;31440;48.584;13.460;2023-04-20T03:53:36;96678.28;;;4.90;100.00
45731;BME280;31440;48.584;13.460;2023-04-20T03:56:46;96678.63;;;4.64;100.00
45731;BME280;31440;48.584;13.460;2023-04-20T03:59:53;96667.09;;;4.92;100.00
45731;BME280;31440;48.584;13.460;2023-04-20T04:03:00;96676.34;;;5.06;100.00
45731;BME280;31440;48.584;13.460;2023-04-20T04:06:06;96679.72;;;5.08;100.00
45731;BME280;31440;48.584;13.460;2023-04-20T04:09:13;96641.16;;;5.06;100.00
45731;BME280;31440;48.584;13.460;2023-04-20T04:12:17;96680.22;;;5.30;100.00
45731;BME280;31440;48.584;13.460;2023-04-20T04:15:24;96679.34;;;5.31;100.00
45731;BME280;31440;48.584;13.460;2023-04-20T04:18:42;96684.28;;;5.43;100.00
45731;BME280;31440;48.584;13.460;2023-04-20T04:21:47;96685.50;;;5.71;100.00
45731;BME280;31440;48.584;13.460;2023-04-20T04:24:52;96679.72;;;5.58;100.00
45731;BME280;31440;48.584;13.460;2023-04-20T04:27:59;96651.34;;;5.61;100.00
45731;BME280;31440;48.584;13.460;2023-04-20T04:31:06;96679.06;;;4.95;100.00
45731;BME280;31440;48.584;13.460;2023-04-20T04:34:11;96679.84;;;4.99;100.00
45731;BME280;31440;48.584;13.460;2023-04-20T04:37:21;96674.22;;;5.27;100.00
45731;BME280;31440;48.584;13.460;2023-04-20T04:40:30;96677.81;;;4.61;100.00
45731;BME280;31440;48.584;13.460;2023-04-20T04:43:39;96677.22;;;5.03;100.00
45731;BME280;31440;48.584;13.460;2023-04-20T04:46:54;96664.81;;;5.76;100.00
45731;BME280;31440;48.584;13.460;2023-04-20T04:50:03;96668.59;;;5.56;100.00
45731;BME280;31440;48.584;13.460;2023-04-20T04:53:09;96666.66;;;5.68;100.00
45731;BME280;31440;48.584;13.460;2023-04-20T04:56:13;96671.88;;;5.65;100.00
45731;BME280;31440;48.584;13.460;2023-04-20T04:59:18;96662.00;;;5.88;100.00
45731;BME280;31440;48.584;13.460;2023-04-20T05:02:23;96672.19;;;5.94;100.00
45731;BME280;31440;48.584;13.460;2023-04-20T05:05:27;96674.38;;;5.69;100.00
45731;BME280;31440;48.584;13.460;2023-04-20T05:08:33;96671.25;;;5.98;100.00
45731;BME280;31440;48.584;13.460;2023-04-20T05:11:37;96666.31;;;5.86;100.00
45731;BME280;31440;48.584;13.460;2023-04-20T05:14:42;96672.34;;;5.85;100.00
45731;BME280;31440;48.584;13.460;2023-04-20T05:17:47;96673.59;;;6.10;100.00
45731;BME280;31440;48.584;13.460;2023-04-20T05:20:53;96672.44;;;6.23;100.00
45731;BME280;31440;48.584;13.460;2023-04-20T05:23:57;96671.88;;;6.09;100.00
45731;BME280;31440;48.584;13.460;2023-04-20T05:27:02;96671.59;;;6.23;100.00
45731;BME280;31440;48.584;13.460;2023-04-20T05:30:07;96680.19;;;6.23;100.00
45731;BME280;31440;48.584;13.460;2023-04-20T05:33:24;96669.00;;;6.24;100.00
45731;BME280;31440;48.584;13.460;2023-04-20T05:36:29;96673.84;;;6.38;100.00
45731;BME280;31440;48.584;13.460;2023-04-20T05:39:34;96681.47;;;6.44;100.00
45731;BME280;31440;48.584;13.460;2023-04-20T05:42:38;96672.47;;;6.22;100.00
45731;BME280;31440;48.584;13.460;2023-04-20T05:45:45;96664.63;;;6.68;100.00
45731;BME280;31440;48.584;13.460;2023-04-20T05:48:49;96670.38;;;6.41;100.00
45731;BME280;31440;48.584;13.460;2023-04-20T05:51:54;96669.19;;;6.55;100.00
45731;BME280;31440;48.584;13.460;2023-04-20T05:55:02;96645.66;;;6.30;100.00
45731;BME280;31440;48.584;13.460;2023-04-20T05:58:06;96660.81;;;6.84;100.00
45731;BME280;31440;48.584;13.460;2023-04-20T06:01:11;96657.13;;;6.56;100.00
45731;BME280;31440;48.584;13.460;2023-04-20T06:04:15;96660.34;;;6.27;100.00
45731;BME280;31440;48.584;13.460;2023-04-20T06:07:20;96649.06;;;6.32;100.00
45731;BME280;31440;48.584;13.460;2023-04-20T06:10:25;96661.00;;;6.75;100.00
45731;BME280;31440;48.584;13.460;2023-04-20T06:13:32;96635.88;;;6.46;100.00
45731;BME280;31440;48.584;13.460;2023-04-20T06:16:37;96659.78;;;6.90;100.00
45731;BME280;31440;48.584;13.460;2023-04-20T06:19:41;96672.25;;;6.71;100.00
45731;BME280;31440;48.584;13.460;2023-04-20T06:22:45;96664.06;;;7.26;100.00
45731;BME280;31440;48.584;13.460;2023-04-20T06:25:50;96658.16;;;6.49;100.00
45731;BME280;31440;48.584;13.460;2023-04-20T06:28:55;96662.38;;;6.90;100.00
45731;BME280;31440;48.584;13.460;2023-04-20T06:32:01;96656.47;;;6.86;100.00
45731;BME280;31440;48.584;13.460;2023-04-20T06:35:06;96656.91;;;7.73;100.00
45731;BME280;31440;48.584;13.460;2023-04-20T06:38:10;96656.47;;;7.22;100.00
45731;BME280;31440;48.584;13.460;2023-04-20T06:41:15;96659.56;;;7.00;100.00
45731;BME280;31440;48.584;13.460;2023-04-20T06:44:19;96656.25;;;6.94;100.00
45731;BME280;31440;48.584;13.460;2023-04-20T06:47:24;96652.25;;;7.18;100.00
45731;BME280;31440;48.584;13.460;2023-04-20T06:50:34;96650.00;;;7.06;100.00
45731;BME280;31440;48.584;13.460;2023-04-20T06:53:39;96642.63;;;7.91;100.00
45731;BME280;31440;48.584;13.460;2023-04-20T06:56:44;96635.81;;;7.22;100.00
45731;BME280;31440;48.584;13.460;2023-04-20T06:59:48;96643.69;;;7.51;100.00
45731;BME280;31440;48.584;13.460;2023-04-20T07:02:53;96636.94;;;7.46;100.00
45731;BME280;31440;48.584;13.460;2023-04-20T07:05:57;96629.78;;;7.23;100.00
45731;BME280;31440;48.584;13.460;2023-04-20T07:09:02;96628.88;;;7.24;100.00
45731;BME280;31440;48.584;13.460;2023-04-20T07:12:07;96621.31;;;7.83;100.00
45731;BME280;31440;48.584;13.460;2023-04-20T07:15:14;96596.09;;;7.26;100.00
45731;BME280;31440;48.584;13.460;2023-04-20T07:18:18;96619.47;;;7.55;100.00
45731;BME280;31440;48.584;13.460;2023-04-20T07:21:23;96617.75;;;7.56;100.00
45731;BME280;31440;48.584;13.460;2023-04-20T07:24:27;96608.66;;;8.32;100.00
45731;BME280;31440;48.584;13.460;2023-04-20T07:27:34;96601.44;;;8.14;100.00
45731;BME280;31440;48.584;13.460;2023-04-20T07:30:39;96592.25;;;8.33;100.00
45731;BME280;31440;48.584;13.460;2023-04-20T07:33:46;96565.00;;;7.32;100.00
45731;BME280;31440;48.584;13.460;2023-04-20T07:36:50;96587.25;;;8.57;100.00
45731;BME280;31440;48.584;13.460;2023-04-20T07:39:54;96582.81;;;8.32;100.00
45731;BME280;31440;48.584;13.460;2023-04-20T07:42:59;96586.66;;;9.03;100.00
45731;BME280;31440;48.584;13.460;2023-04-20T07:46:03;96587.09;;;9.40;100.00
45731;BME280;31440;48.584;13.460;2023-04-20T07:49:08;96585.03;;;9.75;100.00
45731;BME280;31440;48.584;13.460;2023-04-20T07:52:13;96588.00;;;8.60;100.00
45731;BME280;31440;48.584;13.460;2023-04-20T07:55:20;96590.03;;;9.31;100.00
45731;BME280;31440;48.584;13.460;2023-04-20T07:58:25;96583.19;;;10.02;100.00
45731;BME280;31440;48.584;13.460;2023-04-20T08:01:29;96581.88;;;9.67;100.00
45731;BME280;31440;48.584;13.460;2023-04-20T08:04:35;96586.31;;;9.88;100.00
45731;BME280;31440;48.584;13.460;2023-04-20T08:07:41;96584.75;;;10.29;100.00
45731;BME280;31440;48.584;13.460;2023-04-20T08:10:46;96585.53;;;10.09;100.00
45731;BME280;31440;48.584;13.460;2023-04-20T08:13:50;96585.31;;;10.37;100.00
45731;BME280;31440;48.584;13.460;2023-04-20T08:16:55;96581.50;;;10.24;100.00
45731;BME280;31440;48.584;13.460;2023-04-20T08:19:59;96567.28;;;9.64;100.00
45731;BME280;31440;48.584;13.460;2023-04-20T08:23:06;96555.47;;;10.27;100.00
45731;BME280;31440;48.584;13.460;2023-04-20T08:26:14;96577.50;;;10.61;100.00
45731;BME280;31440;48.584;13.460;2023-04-20T08:29:21;96554.66;;;11.12;100.00
45731;BME280;31440;48.584;13.460;2023-04-20T08:32:25;96582.97;;;10.53;100.00
45731;BME280;31440;48.584;13.460;2023-04-20T08:35:30;96589.22;;;10.26;100.00
45731;BME280;31440;48.584;13.460;2023-04-20T08:38:35;96588.31;;;11.56;99.04
45731;BME280;31440;48.584;13.460;2023-04-20T08:41:39;96588.44;;;11.12;100.00
45731;BME280;31440;48.584;13.460;2023-04-20T08:47:51;96578.81;;;10.71;100.00
45731;BME280;31440;48.584;13.460;2023-04-20T08:50:55;96576.16;;;11.57;100.00
45731;BME280;31440;48.584;13.460;2023-04-20T08:54:04;96564.75;;;11.79;96.25
45731;BME280;31440;48.584;13.460;2023-04-20T08:57:09;96572.09;;;11.51;97.37
45731;BME280;31440;48.584;13.460;2023-04-20T09:00:14;96563.16;;;11.96;95.16
45731;BME280;31440;48.584;13.460;2023-04-20T09:03:33;96566.41;;;12.21;97.58
45731;BME280;31440;48.584;13.460;2023-04-20T09:06:42;96561.06;;;12.79;89.61
45731;BME280;31440;48.584;13.460;2023-04-20T09:09:57;96563.06;;;12.55;87.32
45731;BME280;31440;48.584;13.460;2023-04-20T09:13:02;96561.25;;;12.93;89.76
45731;BME280;31440;48.584;13.460;2023-04-20T09:16:10;96566.03;;;12.29;86.18
45731;BME280;31440;48.584;13.460;2023-04-20T09:19:20;96566.75;;;12.12;85.13
45731;BME280;31440;48.584;13.460;2023-04-20T09:22:33;96549.97;;;12.00;88.04
45731;BME280;31440;48.584;13.460;2023-04-20T09:25:38;96551.38;;;12.45;89.35
45731;BME280;31440;48.584;13.460;2023-04-20T09:28:44;96546.41;;;12.59;88.01
45731;BME280;31440;48.584;13.460;2023-04-20T09:31:50;96546.00;;;12.67;87.59
45731;BME280;31440;48.584;13.460;2023-04-20T09:34:55;96535.81;;;12.62;nan
45731;BME280;31440;48.584;13.460;2023-04-20T09:38:00;96530.97;;;12.54;83.53
45731;BME280;31440;48.584;13.460;2023-04-20T09:41:05;96534.19;;;12.42;90.73
45731;BME280;31440;48.584;13.460;2023-04-20T09:44:11;96541.00;;;12.62;83.89
45731;BME280;31440;48.584;13.460;2023-04-20T09:47:17;96538.16;;;12.12;89.78
45731;BME280;31440;48.584;13.460;2023-04-20T09:50:24;96526.28;;;12.80;82.33
45731;BME280;31440;48.584;13.460;2023-04-20T09:53:45;96537.59;;;13.32;83.68
45731;BME280;31440;48.584;13.460;2023-04-20T09:56:50;96532.56;;;13.79;82.12
45731;BME280;31440;48.584;13.460;2023-04-20T09:59:57;96531.19;;;14.21;75.67
45731;BME280;31440;48.584;13.460;2023-04-20T10:03:03;96519.22;;;14.80;75.75
45731;BME280;31440;48.584;13.460;2023-04-20T10:06:21;96523.84;;;15.20;66.01
45731;BME280;31440;48.584;13.460;2023-04-20T10:09:26;96515.59;;;14.82;67.31
45731;BME280;31440;48.584;13.460;2023-04-20T10:12:31;96509.13;;;14.42;77.31
45731;BME280;31440;48.584;13.460;2023-04-20T10:15:37;96512.91;;;14.84;69.55
45731;BME280;31440;48.584;13.460;2023-04-20T10:18:42;96516.44;;;14.83;71.21
45731;BME280;31440;48.584;13.460;2023-04-20T10:21:49;96508.72;;;14.50;69.41
45731;BME280;31440;48.584;13.460;2023-04-20T10:24:54;96506.44;;;14.75;74.94
45731;BME280;31440;48.584;13.460;2023-04-20T10:28:00;96502.72;;;14.01;74.12
45731;BME280;31440;48.584;13.460;2023-04-20T10:31:08;96499.03;;;15.27;72.19
45731;BME280;31440;48.584;13.460;2023-04-20T10:34:16;96496.59;;;15.24;70.85
45731;BME280;31440;48.584;13.460;2023-04-20T10:37:22;96488.72;;;16.66;59.62
45731;BME280;31440;48.584;13.460;2023-04-20T10:40:27;96483.19;;;16.71;63.49
45731;BME280;31440;48.584;13.460;2023-04-20T10:43:31;96483.56;;;15.53;67.66
45731;BME280;31440;48.584;13.460;2023-04-20T10:46:38;96478.97;;;16.27;61.98
45731;BME280;31440;48.584;13.460;2023-04-20T10:49:46;96446.19;;;16.08;62.72
45731;BME280;31440;48.584;13.460;2023-04-20T10:52:50;96464.00;;;17.35;56.76
45731;BME280;31440;48.584;13.460;2023-04-20T10:55:58;96468.22;;;17.63;58.69
45731;BME280;31440;48.584;13.460;2023-04-20T10:59:14;96455.91;;;18.15;58.93
45731;BME280;31440;48.584;13.460;2023-04-20T11:02:19;96443.59;;;18.75;54.92
45731;BME280;31440;48.584;13.460;2023-04-20T11:05:26;96439.91;;;17.43;56.17
45731;BME280;31440;48.584;13.460;2023-04-20T11:08:40;96443.66;;;18.63;53.84
45731;BME280;31440;48.584;13.460;2023-04-20T11:11:45;96437.69;;;18.96;54.58
45731;BME280;31440;48.584;13.460;2023-04-20T11:15:02;96403.91;;;18.67;56.06
45731;BME280;31440;48.584;13.460;2023-04-20T11:18:08;96435.66;;;18.88;54.34
45731;BME280;31440;48.584;13.460;2023-04-20T11:21:13;96431.94;;;18.43;52.99
45731;BME280;31440;48.584;13.460;2023-04-20T11:24:18;96431.19;;;18.54;52.69
45731;BME280;31440;48.584;13.460;2023-04-20T11:27:25;96421.81;;;19.43;53.09
45731;BME280;31440;48.584;13.460;2023-04-20T11:30:38;96418.22;;;18.63;52.56
45731;BME280;31440;48.584;13.460;2023-04-20T11:33:43;96423.09;;;18.92;51.14
45731;BME280;31440;48.584;13.460;2023-04-20T11:36:47;96414.81;;;18.50;55.38
45731;BME280;31440;48.584;13.460;2023-04-20T11:40:04;96412.47;;;18.93;53.82
45731;BME280;31440;48.584;13.460;2023-04-20T11:43:12;96414.03;;;20.31;50.30
45731;BME280;31440;48.584;13.460;2023-04-20T11:46:18;96417.22;;;19.34;51.36
45731;BME280;31440;48.584;13.460;2023-04-20T11:49:25;96403.03;;;19.82;52.72
45731;BME280;31440;48.584;13.460;2023-04-20T11:52:30;96408.50;;;20.34;52.78
45731;BME280;31440;48.584;13.460;2023-04-20T11:55:34;96417.56;;;19.30;51.58
45731;BME280;31440;48.584;13.460;2023-04-20T11:58:39;96409.50;;;21.39;49.50
45731;BME280;31440;48.584;13.460;2023-04-20T12:01:44;96402.38;;;21.39;45.90
45731;BME280;31440;48.584;13.460;2023-04-20T12:04:49;96402.44;;;21.70;49.22
45731;BME280;31440;48.584;13.460;2023-04-20T12:07:53;96400.31;;;20.48;45.63
45731;BME280;31440;48.584;13.460;2023-04-20T12:10:58;96387.84;;;21.24;46.50
45731;BME280;31440;48.584;13.460;2023-04-20T12:14:02;96385.63;;;20.88;45.34
45731;BME280;31440;48.584;13.460;2023-04-20T12:17:08;96383.59;;;22.34;46.40
45731;BME280;31440;48.584;13.460;2023-04-20T12:20:13;96388.53;;;22.58;49.77
45731;BME280;31440;48.584;13.460;2023-04-20T12:23:17;96386.69;;;21.89;47.55
45731;BME280;31440;48.584;13.460;2023-04-20T12:26:22;96378.22;;;21.65;44.80
45731;BME280;31440;48.584;13.460;2023-04-20T12:29:41;96375.28;;;21.98;48.71
45731;BME280;31440;48.584;13.460;2023-04-20T12:32:45;96373.50;;;22.77;47.26
45731;BME280;31440;48.584;13.460;2023-04-20T12:35:50;96356.88;;;23.04;47.19
45731;BME280;31440;48.584;13.460;2023-04-20T12:38:54;96363.03;;;22.57;44.52
45731;BME280;31440;48.584;13.460;2023-04-20T12:42:01;96340.78;;;21.60;46.62
45731;BME280;31440;48.584;13.460;2023-04-20T12:45:06;96363.94;;;22.07;46.84
45731;BME280;31440;48.584;13.460;2023-04-20T12:48:10;96350.72;;;23.23;45.31
45731;BME280;31440;48.584;13.460;2023-04-20T12:51:15;96354.22;;;23.33;42.71
45731;BME280;31440;48.584;13.460;2023-04-20T12:54:23;96329.59;;;22.94;43.76
45731;BME280;31440;48.584;13.460;2023-04-20T12:57:27;96345.84;;;21.72;45.62
45731;BME280;31440;48.584;13.460;2023-04-20T13:00:32;96341.44;;;20.27;47.33
45731;BME280;31440;48.584;13.460;2023-04-20T13:03:36;96338.81;;;20.80;47.20
45731;BME280;31440;48.584;13.460;2023-04-20T13:06:41;96333.53;;;22.61;45.80
45731;BME280;31440;48.584;13.460;2023-04-20T13:09:46;96326.63;;;21.30;47.43
45731;BME280;31440;48.584;13.460;2023-04-20T13:12:50;96327.91;;;23.12;47.05
45731;BME280;31440;48.584;13.460;2023-04-20T13:19:03;96319.38;;;23.18;46.00
45731;BME280;31440;48.584;13.460;2023-04-20T13:22:08;96312.63;;;23.43;43.37
45731;BME280;31440;48.584;13.460;2023-04-20T13:25:12;96305.44;;;23.26;44.95
45731;BME280;31440;48.584;13.460;2023-04-20T13:28:17;96305.88;;;23.58;42.48
45731;BME280;31440;48.584;13.460;2023-04-20T13:31:23;96306.03;;;23.57;43.43
45731;BME280;31440;48.584;13.460;2023-04-20T13:34:27;96311.22;;;21.66;43.73
45731;BME280;31440;48.584;13.460;2023-04-20T13:37:32;96302.72;;;23.45;43.76
45731;BME280;31440;48.584;13.460;2023-04-20T13:40:36;96309.91;;;23.16;43.20
45731;BME280;31440;48.584;13.460;2023-04-20T13:43:42;96302.38;;;23.21;42.72
45731;BME280;31440;48.584;13.460;2023-04-20T13:46:47;96302.78;;;22.60;43.55
45731;BME280;31440;48.584;13.460;2023-04-20T13:49:51;96306.34;;;21.31;43.49
45731;BME280;31440;48.584;13.460;2023-04-20T13:56:02;96296.03;;;21.98;40.47
45731;BME280;31440;48.584;13.460;2023-04-20T13:59:08;96298.44;;;21.71;39.58
45731;BME280;31440;48.584;13.460;2023-04-20T14:02:12;96297.91;;;21.37;42.84
45731;BME280;31440;48.584;13.460;2023-04-20T14:05:17;96295.78;;;21.21;41.42
45731;BME280;31440;48.584;13.460;2023-04-20T14:08:22;96252.94;;;22.07;39.95
45731;BME280;31440;48.584;13.460;2023-04-20T14:11:26;96282.91;;;21.77;40.81
45731;BME280;31440;48.584;13.460;2023-04-20T14:14:31;96283.06;;;21.45;40.86
45731;BME280;31440;48.584;13.460;2023-04-20T14:17:35;96278.78;;;20.93;41.08
45731;BME280;31440;48.584;13.460;2023-04-20T14:20:40;96284.56;;;21.08;41.93
45731;BME280;31440;48.584;13.460;2023-04-20T14:26:56;96280.59;;;20.30;42.20
45731;BME280;31440;48.584;13.460;2023-04-20T14:30:03;96275.00;;;20.65;41.37
45731;BME280;31440;48.584;13.460;2023-04-20T14:33:08;96270.03;;;19.87;41.21
45731;BME280;31440;48.584;13.460;2023-04-20T14:36:12;96272.94;;;20.48;41.99
45731;BME280;31440;48.584;13.460;2023-04-20T14:39:19;96244.56;;;20.40;41.13
45731;BME280;31440;48.584;13.460;2023-04-20T14:42:26;96267.59;;;20.59;42.69
45731;BME280;31440;48.584;13.460;2023-04-20T14:45:31;96271.56;;;20.54;41.68
45731;BME280;31440;48.584;13.460;2023-04-20T14:48:35;96273.16;;;20.24;42.08
45731;BME280;31440;48.584;13.460;2023-04-20T14:51:41;96264.63;;;20.32;42.48
45731;BME280;31440;48.584;13.460;2023-04-20T14:54:45;96269.38;;;20.38;42.77
45731;BME280;31440;48.584;13.460;2023-04-20T14:57:56;96267.97;;;20.55;43.19
45731;BME280;31440;48.584;13.460;2023-04-20T15:01:00;96259.72;;;20.90;41.74
45731;BME280;31440;48.584;13.460;2023-04-20T15:04:05;96257.53;;;20.95;42.62
45731;BME280;31440;48.584;13.460;2023-04-20T15:07:13;96243.19;;;20.88;41.83
45731;BME280;31440;48.584;13.460;2023-04-20T15:10:18;96258.88;;;20.89;42.15
45731;BME280;31440;48.584;13.460;2023-04-20T15:13:24;96247.13;;;20.72;41.78
45731;BME280;31440;48.584;13.460;2023-04-20T15:16:28;96252.88;;;20.57;42.19
45731;BME280;31440;48.584;13.460;2023-04-20T15:19:33;96256.50;;;19.92;44.25
45731;BME280;31440;48.584;13.460;2023-04-20T15:22:37;96255.88;;;19.56;47.38
45731;BME280;31440;48.584;13.460;2023-04-20T15:25:42;96247.50;;;19.51;48.28
45731;BME280;31440;48.584;13.460;2023-04-20T15:28:50;96249.97;;;19.64;50.74
45731;BME280;31440;48.584;13.460;2023-04-20T15:31:55;96259.69;;;19.30;50.38
45731;BME280;31440;48.584;13.460;2023-04-20T15:34:59;96253.09;;;18.91;51.18
45731;BME280;31440;48.584;13.460;2023-04-20T15:38:04;96257.06;;;18.39;51.39
45731;BME280;31440;48.584;13.460;2023-04-20T15:41:09;96239.91;;;17.87;53.13
45731;BME280;31440;48.584;13.460;2023-04-20T15:44:14;96260.84;;;17.39;54.06
45731;BME280;31440;48.584;13.460;2023-04-20T15:47:19;96260.00;;;17.99;53.36
45731;BME280;31440;48.584;13.460;2023-04-20T15:50:23;96259.81;;;17.79;54.59
45731;BME280;31440;48.584;13.460;2023-04-20T15:53:28;96270.88;;;17.22;55.08
45731;BME280;31440;48.584;13.460;2023-04-20T15:59:40;96276.63;;;18.35;54.40
45731;BME280;31440;48.584;13.460;2023-04-20T16:02:44;96270.34;;;17.66;55.61
45731;BME280;31440;48.584;13.460;2023-04-20T16:05:49;96268.22;;;17.71;56.50
45731;BME280;31440;48.584;13.460;2023-04-20T16:08:54;96265.50;;;17.72;57.48
45731;BME280;31440;48.584;13.460;2023-04-20T16:12:00;96268.88;;;17.98;58.01
45731;BME280;31440;48.584;13.460;2023-04-20T16:15:08;96264.28;;;17.03;60.51
45731;BME280;31440;48.584;13.460;2023-04-20T16:18:13;96272.63;;;17.34;58.87
45731;BME280;31440;48.584;13.460;2023-04-20T16:21:18;96277.78;;;17.23;61.93
45731;BME280;31440;48.584;13.460;2023-04-20T16:24:22;96274.03;;;16.76;66.34
45731;BME280;31440;48.584;13.460;2023-04-20T16:27:27;96271.94;;;17.56;60.61
45731;BME280;31440;48.584;13.460;2023-04-20T16:30:31;96271.81;;;16.95;62.39
45731;BME280;31440;48.584;13.460;2023-04-20T16:33:37;96257.25;;;16.79;62.52